Time;durP1;ratioP1;P1;durP2;ratioP2;P2;SDS_P1;SDS_P2;PMS_P1;PMS_P2;Temp;Humidity;BMP_temperature;BMP_pressure;BME280_temperature;BME280_humidity;BME280_pressure;Samples;Min_cycle;Max_cycle;Signal;HPM_P1;HPM_P2
2023/04/06 00:00:43;;;;;;;15.75;9.88;;;;;;;2.93;60.20;101773.16;5052844;28;20033;-75
2023/04/06 00:03:09;;;;;;;16.45;10.85;;;;;;;2.91;60.61;101777.47;5053977;28;20040;-75
2023/04/06 00:05:34;;;;;;;17.60;10.98;;;;;;;2.88;61.16;101775.66;5052663;28;20341;-75
2023/04/06 00:08:00;;;;;;;15.73;10.27;;;;;;;2.87;60.32;101776.50;5038955;28;20056;-75
2023/04/06 00:10:26;;;;;;;17.92;10.23;;;;;;;2.86;60.20;101768.63;5054019;28;20037;-75
2023/04/06 00:12:52;;;;;;;17.85;10.07;;;;;;;2.88;59.81;101769.53;5054334;28;20415;-75
2023/04/06 00:15:17;;;;;;;18.88;10.75;;;;;;;2.89;60.25;101768.69;5053977;28;20550;-75
2023/04/06 00:17:43;;;;;;;17.55;10.48;;;;;;;2.87;60.13;101773.91;5054078;28;20098;-75
2023/04/06 00:20:09;;;;;;;17.02;10.20;;;;;;;2.85;60.89;101775.59;5050793;28;20025;-75
2023/04/06 00:22:35;;;;;;;22.77;10.80;;;;;;;2.81;60.75;101760.66;5053883;28;20504;-75
2023/04/06 00:25:00;;;;;;;17.15;10.18;;;;;;;2.80;60.78;101758.91;5039177;28;20128;-75
2023/04/06 00:27:26;;;;;;;19.15;10.45;;;;;;;2.78;61.23;101763.19;5039519;28;20124;-75
2023/04/06 00:29:52;;;;;;;18.77;11.27;;;;;;;2.74;61.75;101761.34;5049601;28;20042;-75
2023/04/06 00:32:18;;;;;;;18.05;10.65;;;;;;;2.74;61.46;101759.59;5052166;28;20126;-75
2023/04/06 00:34:43;;;;;;;22.20;10.85;;;;;;;2.73;61.95;101752.63;5057991;28;20528;-75
2023/04/06 00:37:09;;;;;;;19.13;10.13;;;;;;;2.72;61.55;101750.84;5048971;28;20179;-75
2023/04/06 00:39:35;;;;;;;20.17;10.48;;;;;;;2.70;61.80;101747.31;5059736;28;20488;-75
2023/04/06 00:42:06;;;;;;;19.58;10.77;;;;;;;2.71;62.47;101738.59;5042314;28;20061;-75
2023/04/06 00:44:32;;;;;;;21.55;10.68;;;;;;;2.73;62.32;101742.16;5061091;28;20125;-75
2023/04/06 00:46:57;;;;;;;18.77;10.77;;;;;;;2.74;62.10;101743.03;5034022;28;20153;-75
2023/04/06 00:49:23;;;;;;;15.80;9.93;;;;;;;2.72;61.90;101736.88;5050986;28;20037;-76
2023/04/06 00:51:49;;;;;;;19.95;10.95;;;;;;;2.71;62.11;101733.38;5032181;28;20111;-75
2023/04/06 00:54:14;;;;;;;16.70;10.43;;;;;;;2.67;61.20;101731.56;5047091;28;20076;-74
2023/04/06 00:56:42;;;;;;;15.02;9.60;;;;;;;2.67;61.66;101728.03;5032228;28;20109;-75
2023/04/06 00:59:08;;;;;;;18.23;11.02;;;;;;;2.66;61.33;101729.75;5043928;28;20068;-75
2023/04/06 01:01:34;;;;;;;23.65;11.25;;;;;;;2.65;61.94;101722.78;5050540;28;20457;-75
2023/04/06 01:04:07;;;;;;;20.27;11.27;;;;;;;2.61;62.05;101715.69;5058240;28;20059;-75
2023/04/06 01:06:40;;;;;;;16.05;8.88;;;;;;;2.65;61.69;101722.78;5036055;28;20156;-75
2023/04/06 01:09:05;;;;;;;20.10;10.05;;;;;;;2.67;61.64;101723.72;5039771;28;20103;-75
2023/04/06 01:11:31;;;;;;;18.77;9.82;;;;;;;2.65;61.83;101717.56;5052014;28;20041;-75
2023/04/06 01:13:56;;;;;;;17.42;9.73;;;;;;;2.66;61.29;101713.19;5035038;28;20040;-75
2023/04/06 01:16:28;;;;;;;18.95;10.13;;;;;;;2.65;61.19;101707.09;5062602;28;20492;-75
2023/04/06 01:19:09;;;;;;;16.48;9.80;;;;;;;2.62;61.25;101707.03;5051252;28;20056;-75
2023/04/06 01:21:37;;;;;;;15.73;8.82;;;;;;;2.65;61.54;101712.31;5040251;28;20029;-75
2023/04/06 01:24:25;;;;;;;16.08;9.10;;;;;;;2.65;61.10;101706.22;5046317;28;20037;-75
2023/04/06 01:27:13;;;;;;;16.05;9.50;;;;;;;2.69;61.28;101708.03;5036368;28;20491;-75
2023/04/06 01:30:05;;;;;;;19.10;9.95;;;;;;;2.71;61.51;101702.00;5035253;28;20041;-75
2023/04/06 01:32:47;;;;;;;16.83;9.73;;;;;;;2.72;62.02;101701.16;5047742;28;20037;-75
2023/04/06 01:35:18;;;;;;;15.45;9.23;;;;;;;2.76;61.77;101691.66;5047881;28;20069;-75
2023/04/06 01:37:54;;;;;;;16.02;9.40;;;;;;;2.79;61.57;101690.00;5047391;28;20029;-75
2023/04/06 01:40:27;;;;;;;20.77;10.60;;;;;;;2.85;61.42;101691.00;5026923;28;20507;-75
2023/04/06 01:42:52;;;;;;;17.88;10.25;;;;;;;2.86;61.77;101682.28;5040095;28;20139;-75
2023/04/06 01:45:26;;;;;;;18.15;9.88;;;;;;;2.91;60.84;101685.88;5040233;28;20160;-75
2023/04/06 01:47:57;;;;;;;18.85;9.38;;;;;;;2.95;61.05;101678.16;5048052;28;20033;-75
2023/04/06 01:50:24;;;;;;;14.75;9.57;;;;;;;3.00;61.97;101680.88;5057995;28;20068;-75
2023/04/06 01:52:50;;;;;;;19.45;10.00;;;;;;;3.01;61.66;101682.63;5046277;28;20488;-75
2023/04/06 01:55:16;;;;;;;17.05;10.07;;;;;;;3.03;61.39;101674.81;5052152;28;20029;-75
2023/04/06 01:58:17;;;;;;;16.27;9.70;;;;;;;3.10;60.46;101672.38;5018000;28;20382;-75
2023/04/06 02:00:42;;;;;;;18.60;9.40;;;;;;;3.12;61.36;101665.44;5036628;28;20440;-76
2023/04/06 02:03:09;;;;;;;17.67;8.90;;;;;;;3.16;60.99;101659.41;5034073;28;20059;-75
2023/04/06 02:05:37;;;;;;;17.25;10.88;;;;;;;3.22;61.32;101661.28;5059009;28;20489;-75
2023/04/06 02:08:10;;;;;;;18.60;10.52;;;;;;;3.26;60.87;101657.00;5032118;28;20076;-75
2023/04/06 02:10:37;;;;;;;19.48;10.20;;;;;;;3.29;60.64;101660.56;5059260;28;20048;-75
2023/04/06 02:13:12;;;;;;;18.80;10.77;;;;;;;3.32;61.57;101657.13;5031559;28;20040;-75
2023/04/06 02:15:40;;;;;;;16.17;10.55;;;;;;;3.32;61.20;101655.41;5027908;28;20037;-75
2023/04/06 02:18:05;;;;;;;20.38;10.85;;;;;;;3.37;61.58;101650.25;5022984;28;20034;-75
2023/04/06 02:20:31;;;;;;;25.30;10.85;;;;;;;3.36;61.28;101646.75;5046092;28;20041;-75
2023/04/06 02:23:00;;;;;;;22.02;10.93;;;;;;;3.39;61.45;101641.59;5039951;28;20021;-75
2023/04/06 02:25:26;;;;;;;19.98;10.35;;;;;;;3.41;60.53;101642.50;5053316;28;20052;-75
2023/04/06 02:27:52;;;;;;;18.85;10.48;;;;;;;3.45;61.45;101644.31;5057587;28;20060;-75
2023/04/06 02:30:17;;;;;;;25.75;11.23;;;;;;;3.47;60.50;101639.13;5030991;28;20034;-76
2023/04/06 02:32:43;;;;;;;19.75;10.80;;;;;;;3.49;61.15;101637.41;5043685;28;20111;-75
2023/04/06 02:35:09;;;;;;;19.70;10.52;;;;;;;3.50;60.58;101622.59;5046993;28;20432;-75
2023/04/06 02:37:35;;;;;;;23.02;11.43;;;;;;;3.58;60.79;101628.84;5047051;28;20079;-76
2023/04/06 02:40:00;;;;;;;20.10;11.57;;;;;;;3.60;61.17;101633.25;5046843;28;20564;-75
2023/04/06 02:42:29;;;;;;;21.75;10.10;;;;;;;3.61;60.84;101627.19;5033527;28;20419;-75
2023/04/06 02:44:56;;;;;;;19.30;11.35;;;;;;;3.62;60.98;101623.69;5050091;28;20095;-75
2023/04/06 02:47:26;;;;;;;17.63;10.93;;;;;;;3.62;61.58;101618.47;5034014;28;20052;-76
2023/04/06 02:49:51;;;;;;;20.77;11.68;;;;;;;3.65;61.18;101622.88;5051264;28;20037;-75
2023/04/06 02:52:18;;;;;;;18.38;11.20;;;;;;;3.65;61.78;101615.88;5036342;28;20043;-75
2023/04/06 02:54:43;;;;;;;20.77;11.70;;;;;;;3.63;61.96;101604.50;5049995;28;20021;-76
2023/04/06 02:57:10;;;;;;;22.55;11.88;;;;;;;3.64;61.89;101610.66;5054840;28;20107;-76
2023/04/06 02:59:40;;;;;;;22.65;11.00;;;;;;;3.64;62.19;101601.03;5030825;28;20099;-76
2023/04/06 03:02:14;;;;;;;22.17;11.40;;;;;;;3.65;61.65;101605.41;5031252;28;20034;-76
2023/04/06 03:04:42;;;;;;;25.70;11.15;;;;;;;3.65;62.23;101600.16;5046443;28;20036;-76
2023/04/06 03:07:17;;;;;;;21.75;11.98;;;;;;;3.66;62.04;101601.97;5030205;28;20060;-76
2023/04/06 03:09:42;;;;;;;23.63;13.27;;;;;;;3.67;62.34;101606.31;5048544;28;20060;-76
2023/04/06 03:12:08;;;;;;;18.48;11.73;;;;;;;3.66;63.21;101596.72;5057424;28;20037;-76
2023/04/06 03:14:44;;;;;;;18.98;10.82;;;;;;;3.67;62.33;101598.47;5042781;28;20025;-76
2023/04/06 03:17:10;;;;;;;22.85;11.27;;;;;;;3.69;62.83;101597.63;5033328;28;20090;-76
2023/04/06 03:19:36;;;;;;;25.15;12.98;;;;;;;3.66;63.12;101599.34;5055755;28;20041;-76
2023/04/06 03:22:02;;;;;;;24.65;14.07;;;;;;;3.70;62.49;101594.16;5032487;28;20067;-76
2023/04/06 03:24:28;;;;;;;22.60;13.55;;;;;;;3.66;63.76;101593.22;5055437;28;20512;-76
2023/04/06 03:26:54;;;;;;;21.42;12.35;;;;;;;3.67;63.84;101593.22;5032443;28;20052;-75
2023/04/06 03:29:20;;;;;;;22.70;12.18;;;;;;;3.65;64.06;101584.47;5062027;28;20036;-75
2023/04/06 03:31:46;;;;;;;23.63;12.88;;;;;;;3.68;63.62;101588.88;5033248;28;20041;-75
2023/04/06 03:34:47;;;;;;;23.93;13.20;;;;;;;3.69;63.64;101581.91;5044665;28;20061;-75
2023/04/06 03:37:12;;;;;;;25.80;12.65;;;;;;;3.67;62.85;101581.88;5033026;28;20194;-75
2023/04/06 03:39:45;;;;;;;24.05;13.25;;;;;;;3.67;62.68;101582.75;5043716;28;20042;-75
2023/04/06 03:42:15;;;;;;;22.23;12.07;;;;;;;3.69;63.01;101585.41;5044914;28;20069;-75
2023/04/06 03:44:48;;;;;;;17.80;11.48;;;;;;;3.70;62.50;101578.44;5061650;28;20064;-75
2023/04/06 03:47:15;;;;;;;20.30;11.85;;;;;;;3.67;63.21;101580.13;5033799;28;20044;-75
2023/04/06 03:49:40;;;;;;;21.08;13.23;;;;;;;3.67;63.70;101582.75;5063377;28;20400;-75
2023/04/06 03:52:09;;;;;;;22.55;12.70;;;;;;;3.67;63.87;101582.75;5046076;28;20036;-75
2023/04/06 03:54:35;;;;;;;21.23;13.55;;;;;;;3.66;63.11;101573.16;5053113;28;20388;-75
2023/04/06 03:57:00;;;;;;;23.83;13.52;;;;;;;3.62;63.19;101573.94;5054508;28;20032;-75
2023/04/06 03:59:26;;;;;;;23.98;12.93;;;;;;;3.63;63.52;101578.31;5055581;28;20044;-75
2023/04/06 04:01:52;;;;;;;22.50;12.75;;;;;;;3.61;63.83;101571.28;5060930;28;20060;-75
2023/04/06 04:04:17;;;;;;;22.33;13.52;;;;;;;3.60;64.29;101577.38;5047686;28;20440;-75
2023/04/06 04:06:43;;;;;;;24.65;14.05;;;;;;;3.57;64.36;101574.72;5054402;28;20053;-75
2023/04/06 04:09:08;;;;;;;23.52;12.23;;;;;;;3.56;63.73;101579.06;5057112;28;20046;-75
2023/04/06 04:11:34;;;;;;;21.17;13.02;;;;;;;3.57;63.32;101582.56;5052017;28;20029;-75
2023/04/06 04:14:00;;;;;;;23.75;12.77;;;;;;;3.58;64.15;101584.31;5040891;28;20044;-75
2023/04/06 04:16:25;;;;;;;26.73;14.13;;;;;;;3.56;63.96;101586.03;5053793;28;20484;-75
2023/04/06 04:18:51;;;;;;;23.40;12.93;;;;;;;3.55;64.13;101576.41;5048312;28;20025;-75
2023/04/06 04:21:16;;;;;;;20.48;12.63;;;;;;;3.52;64.41;101577.25;5051176;28;20044;-75
2023/04/06 04:23:42;;;;;;;23.92;14.48;;;;;;;3.51;64.59;101582.44;5044994;28;20056;-82
2023/04/06 04:26:07;;;;;;;25.85;14.07;;;;;;;3.48;64.27;101572.78;5075705;28;20025;-82
2023/04/06 04:28:34;;;;;;;22.20;14.15;;;;;;;3.48;64.37;101574.53;5071631;28;20493;-81
2023/04/06 04:30:59;;;;;;;24.00;13.75;;;;;;;3.47;64.29;101573.66;5070486;28;20037;-82
2023/04/06 04:33:26;;;;;;;21.05;13.40;;;;;;;3.47;64.72;101571.03;5053318;28;20405;-81
2023/04/06 04:35:55;;;;;;;23.27;12.85;;;;;;;3.50;64.54;101570.22;5053275;28;20476;-81
2023/04/06 04:38:24;;;;;;;20.55;12.27;;;;;;;3.49;64.53;101574.56;5043678;28;20060;-81
2023/04/06 04:40:52;;;;;;;26.13;14.55;;;;;;;3.50;64.83;101578.94;5048193;28;20044;-81
2023/04/06 04:43:18;;;;;;;19.88;12.57;;;;;;;3.50;64.32;101571.09;5043160;28;20049;-82
2023/04/06 04:45:44;;;;;;;25.13;14.57;;;;;;;3.49;64.75;101566.72;5052384;28;20083;-81
2023/04/06 04:48:32;;;;;;;25.70;13.65;;;;;;;3.48;64.55;101571.91;5050602;28;20377;-81
2023/04/06 04:51:01;;;;;;;21.27;13.85;;;;;;;3.50;65.47;101567.59;5068268;28;20044;-82
2023/04/06 04:53:37;;;;;;;29.15;13.63;;;;;;;3.49;65.69;101558.84;5069175;28;20090;-82
2023/04/06 04:56:14;;;;;;;29.92;15.18;;;;;;;3.50;65.23;101560.59;5053842;28;20373;-82
2023/04/06 04:58:39;;;;;;;20.58;12.65;;;;;;;3.47;64.92;101557.94;5035957;28;20036;-82
2023/04/06 05:01:05;;;;;;;28.85;15.27;;;;;;;3.46;65.28;101561.41;5068705;28;20033;-82
2023/04/06 05:03:32;;;;;;;21.65;13.48;;;;;;;3.47;65.56;101557.94;5038331;28;20041;-81
2023/04/06 05:06:01;;;;;;;27.52;15.38;;;;;;;3.49;65.35;101557.94;5032586;28;20034;-81
2023/04/06 05:08:31;;;;;;;25.92;14.48;;;;;;;3.49;65.49;101563.19;5067958;28;20059;-82
2023/04/06 05:10:57;;;;;;;25.27;14.90;;;;;;;3.51;65.02;101562.41;5053135;28;20094;-82
2023/04/06 05:13:23;;;;;;;23.55;13.18;;;;;;;3.55;65.68;101560.69;5022922;28;20041;-82
2023/04/06 05:15:51;;;;;;;23.55;14.23;;;;;;;3.57;65.02;101567.72;5069907;28;20028;-82
2023/04/06 05:18:23;;;;;;;25.00;14.40;;;;;;;3.60;65.13;101561.66;5059995;28;20033;-82
2023/04/06 05:20:51;;;;;;;24.20;13.82;;;;;;;3.63;65.01;101567.81;5068288;28;20387;-82
2023/04/06 05:23:18;;;;;;;22.40;13.10;;;;;;;3.66;65.27;101561.78;5046240;28;20029;-82
2023/04/06 05:25:44;;;;;;;25.15;14.25;;;;;;;3.66;65.27;101557.44;5057327;28;20043;-82
2023/04/06 05:28:20;;;;;;;24.30;13.60;;;;;;;3.70;65.39;101562.72;5051459;28;20039;-82
2023/04/06 05:30:48;;;;;;;27.73;14.10;;;;;;;3.69;65.06;101561.84;5066944;28;20033;-82
2023/04/06 05:33:15;;;;;;;26.70;15.02;;;;;;;3.75;64.87;101568.91;5068134;28;20491;-82
2023/04/06 05:36:00;;;;;;;23.73;13.05;;;;;;;3.77;64.60;101559.34;5067840;28;20060;-82
2023/04/06 05:38:26;;;;;;;24.85;13.50;;;;;;;3.82;64.77;101557.69;5050456;28;20032;-82
2023/04/06 05:40:54;;;;;;;27.95;14.48;;;;;;;3.81;64.95;101556.81;5040452;28;20028;-82
2023/04/06 05:43:24;;;;;;;30.10;14.05;;;;;;;3.82;65.07;101555.06;5001257;28;20068;-81
2023/04/06 05:45:53;;;;;;;24.85;15.75;;;;;;;3.83;65.30;101555.09;5063480;28;20037;-82
2023/04/06 05:48:19;;;;;;;25.27;14.63;;;;;;;3.83;64.92;101544.63;5050209;28;20036;-82
2023/04/06 05:50:49;;;;;;;23.73;14.23;;;;;;;3.84;65.04;101543.75;5031182;28;20029;-81
2023/04/06 05:53:15;;;;;;;25.65;13.15;;;;;;;3.87;65.50;101545.56;5052576;28;20047;-82
2023/04/06 05:55:48;;;;;;;28.55;13.77;;;;;;;3.90;64.86;101548.22;5067196;28;20033;-82
2023/04/06 05:58:17;;;;;;;25.17;14.65;;;;;;;3.92;65.36;101548.25;5069200;28;20047;-81
2023/04/06 06:00:45;;;;;;;28.98;15.02;;;;;;;3.95;65.43;101549.16;5067813;28;20032;-82
2023/04/06 06:03:12;;;;;;;25.70;14.57;;;;;;;4.03;65.05;101554.53;5068600;28;20028;-82
2023/04/06 06:05:40;;;;;;;27.83;15.23;;;;;;;4.06;65.13;101545.00;5047167;28;20037;-81
2023/04/06 06:08:14;;;;;;;32.67;14.95;;;;;;;4.12;65.17;101556.44;5052432;28;20040;-82
2023/04/06 06:10:40;;;;;;;25.83;15.55;;;;;;;4.17;64.73;101549.53;5077187;28;20038;-82
2023/04/06 06:13:07;;;;;;;22.63;13.85;;;;;;;4.20;64.84;101545.19;5027818;28;20088;-82
2023/04/06 06:15:33;;;;;;;21.15;14.57;;;;;;;4.23;64.58;101568.00;5042227;28;20033;-81
2023/04/06 06:17:58;;;;;;;22.30;12.95;;;;;;;4.27;64.74;101565.41;5057957;28;20037;-82
2023/04/06 06:20:26;;;;;;;25.30;15.15;;;;;;;4.35;64.61;101569.91;5065816;28;20021;-82
2023/04/06 06:22:52;;;;;;;20.05;12.95;;;;;;;4.41;64.66;101559.50;5037612;28;20095;-82
2023/04/06 06:25:21;;;;;;;23.77;14.73;;;;;;;4.43;64.67;101550.81;5063167;28;20029;-83
2023/04/06 06:27:47;;;;;;;22.00;13.68;;;;;;;4.51;63.94;101554.41;5046302;28;20040;-83
2023/04/06 06:30:16;;;;;;;22.52;14.52;;;;;;;4.52;64.53;101555.28;5049685;28;20036;-83
2023/04/06 06:32:43;;;;;;;27.30;15.57;;;;;;;4.61;65.06;101562.44;5052057;28;20052;-83
2023/04/06 06:35:09;;;;;;;25.23;14.43;;;;;;;4.65;64.80;101554.63;5050330;28;20048;-82
2023/04/06 06:37:35;;;;;;;28.65;13.18;;;;;;;4.68;64.65;101556.41;5049746;28;20037;-83
2023/04/06 06:40:01;;;;;;;22.10;14.55;;;;;;;4.75;64.81;101558.25;5050741;28;20048;-83
2023/04/06 06:42:27;;;;;;;25.38;15.00;;;;;;;4.79;64.79;101564.41;5053256;28;20053;-83
2023/04/06 06:45:13;;;;;;;27.00;14.85;;;;;;;4.80;64.57;101560.91;5053112;28;20033;-83
2023/04/06 06:47:40;;;;;;;22.50;14.25;;;;;;;4.85;63.90;101562.75;5050349;28;20167;-83
2023/04/06 06:50:07;;;;;;;26.98;14.52;;;;;;;4.93;63.92;101568.97;5055933;28;20040;-83
2023/04/06 06:52:34;;;;;;;20.08;12.98;;;;;;;4.97;63.64;101559.41;5060781;28;20024;-83
2023/04/06 06:55:00;;;;;;;20.95;13.18;;;;;;;5.03;63.27;101556.84;5039810;28;20048;-83
2023/04/06 06:57:26;;;;;;;26.02;14.60;;;;;;;5.07;62.95;101553.41;5061363;28;20036;-84
2023/04/06 06:59:52;;;;;;;27.55;14.02;;;;;;;5.11;63.35;101549.06;5056518;28;20384;-84
2023/04/06 07:02:19;;;;;;;30.83;14.70;;;;;;;5.15;63.40;101553.50;5059814;28;20032;-84
2023/04/06 07:04:48;;;;;;;24.38;15.32;;;;;;;5.14;63.34;101551.72;5056475;28;20040;-85
2023/04/06 07:07:14;;;;;;;23.33;12.65;;;;;;;5.16;62.83;101543.00;5062821;28;20029;-85
2023/04/06 07:09:40;;;;;;;26.40;14.98;;;;;;;5.22;63.38;101546.56;5055321;28;20052;-85
2023/04/06 07:12:06;;;;;;;24.90;14.70;;;;;;;5.26;63.47;101546.63;5050108;28;20377;-85
2023/04/06 07:14:31;;;;;;;19.02;12.90;;;;;;;5.30;63.01;101542.28;5051633;28;20043;-85
2023/04/06 07:16:57;;;;;;;23.17;14.07;;;;;;;5.35;62.92;101548.47;5053996;28;20435;-85
2023/04/06 07:19:23;;;;;;;23.77;13.95;;;;;;;5.37;62.73;101533.63;5055607;28;20124;-86
2023/04/06 07:21:49;;;;;;;23.40;13.82;;;;;;;5.41;63.19;101540.66;5067689;28;20037;-85
2023/04/06 07:24:15;;;;;;;23.95;14.13;;;;;;;5.44;62.85;101532.81;5035226;28;20041;-85
2023/04/06 07:26:42;;;;;;;25.77;13.68;;;;;;;5.46;64.05;101528.44;5050858;28;20033;-85
2023/04/06 07:29:08;;;;;;;23.65;14.80;;;;;;;5.56;63.20;101534.66;5069357;28;20032;-85
2023/04/06 07:31:35;;;;;;;25.25;14.02;;;;;;;5.62;63.94;101536.50;5043928;28;20025;-85
2023/04/06 07:34:01;;;;;;;21.77;14.52;;;;;;;5.65;62.98;101534.78;5056321;28;20541;-85
2023/04/06 07:36:27;;;;;;;21.35;12.95;;;;;;;5.75;63.24;101530.47;5049475;28;20025;-85
2023/04/06 07:38:52;;;;;;;21.85;14.15;;;;;;;5.83;63.54;101534.03;5054010;28;20086;-85
2023/04/06 07:41:18;;;;;;;29.13;15.02;;;;;;;5.85;63.76;101529.69;5037113;28;20488;-85
2023/04/06 07:43:44;;;;;;;25.98;12.30;;;;;;;5.95;62.87;101525.44;5049641;28;20443;-85
2023/04/06 07:46:10;;;;;;;21.25;12.93;;;;;;;6.02;61.63;101529.88;5037991;28;20152;-84
2023/04/06 07:48:37;;;;;;;23.17;13.07;;;;;;;6.06;61.46;101523.78;5050510;28;20050;-84
2023/04/06 07:51:06;;;;;;;26.00;12.88;;;;;;;6.11;61.55;101527.31;5048647;28;20030;-84
2023/04/06 07:53:35;;;;;;;22.42;12.93;;;;;;;6.14;60.91;101518.56;5033875;28;20025;-85
2023/04/06 07:56:01;;;;;;;30.45;13.85;;;;;;;6.23;61.13;101523.88;5033849;28;20421;-86
2023/04/06 07:58:26;;;;;;;22.67;12.63;;;;;;;6.28;60.08;101529.16;5038432;28;20033;-84
2023/04/06 08:00:52;;;;;;;21.85;13.50;;;;;;;6.29;60.55;101520.44;5054429;28;20033;-84
2023/04/06 08:03:17;;;;;;;26.95;14.02;;;;;;;6.33;61.09;101527.44;5068360;28;20048;-84
2023/04/06 08:05:43;;;;;;;26.23;12.98;;;;;;;6.36;61.34;101538.88;5072705;28;20103;-85
2023/04/06 08:08:09;;;;;;;23.00;13.93;;;;;;;6.40;61.20;101532.75;5061393;28;20045;-85
2023/04/06 08:10:34;;;;;;;22.83;13.18;;;;;;;6.49;61.81;101531.06;5089597;28;20037;-84
2023/04/06 08:13:00;;;;;;;20.48;13.38;;;;;;;6.57;60.89;101526.72;5058912;28;20036;-85
2023/04/06 08:15:26;;;;;;;27.35;15.05;;;;;;;6.62;59.85;101530.25;5064092;28;20458;-84
2023/04/06 08:17:52;;;;;;;23.20;13.25;;;;;;;6.67;60.15;101534.66;5044013;28;20041;-85
2023/04/06 08:20:17;;;;;;;20.55;12.32;;;;;;;6.71;60.08;101534.72;5046812;28;20029;-85
2023/04/06 08:22:43;;;;;;;22.65;14.27;;;;;;;6.71;60.10;101530.31;5049521;28;20400;-84
2023/04/06 08:25:08;;;;;;;24.75;12.07;;;;;;;6.78;59.16;101539.13;5051898;28;20052;-85
2023/04/06 08:27:34;;;;;;;21.45;12.63;;;;;;;6.77;60.36;101542.63;5045803;28;20025;-84
2023/04/06 08:29:59;;;;;;;24.02;14.02;;;;;;;6.76;59.93;101536.47;5052942;28;20127;-84
2023/04/06 08:32:25;;;;;;;21.45;12.73;;;;;;;6.81;60.86;101542.66;5075396;28;20131;-85
2023/04/06 08:34:53;;;;;;;30.75;14.23;;;;;;;6.81;60.18;101529.47;5057632;28;20028;-86
2023/04/06 08:37:19;;;;;;;23.98;13.35;;;;;;;6.91;61.17;101538.31;5065461;28;20035;-84
2023/04/06 08:39:44;;;;;;;22.08;13.05;;;;;;;6.99;59.75;101538.34;5053680;28;20033;-84
2023/04/06 08:42:16;;;;;;;22.98;14.02;;;;;;;7.02;60.56;101535.72;5056855;28;20127;-85
2023/04/06 08:44:42;;;;;;;25.05;13.68;;;;;;;7.06;59.00;101537.50;5058452;28;20052;-86
2023/04/06 08:47:07;;;;;;;21.60;13.07;;;;;;;7.10;60.25;101539.28;5050645;28;20056;-84
2023/04/06 08:49:37;;;;;;;23.63;13.95;;;;;;;7.13;59.21;101541.03;5058668;28;20036;-85
2023/04/06 08:52:05;;;;;;;23.42;13.05;;;;;;;7.21;59.86;101541.94;5055023;28;20032;-85
2023/04/06 08:54:30;;;;;;;22.92;12.93;;;;;;;7.29;59.53;101533.19;5058453;28;20083;-85
2023/04/06 08:56:56;;;;;;;22.25;13.05;;;;;;;7.39;60.07;101533.19;5054644;28;20048;-85
2023/04/06 08:59:24;;;;;;;23.50;13.80;;;;;;;7.45;59.73;101536.72;5048060;28;20029;-87
2023/04/06 09:01:52;;;;;;;25.98;14.50;;;;;;;7.51;59.58;101538.50;5063635;28;20378;-85
2023/04/06 09:04:18;;;;;;;24.58;15.32;;;;;;;7.51;60.45;101536.72;5056072;28;20012;-85
2023/04/06 09:06:44;;;;;;;25.63;15.20;;;;;;;7.58;60.43;101539.38;5062270;28;20047;-85
2023/04/06 09:09:09;;;;;;;24.88;14.52;;;;;;;7.66;60.70;101542.91;5024128;28;20033;-85
2023/04/06 09:11:46;;;;;;;23.45;14.38;;;;;;;7.73;61.13;101542.91;5052707;28;20040;-84
2023/04/06 09:14:12;;;;;;;22.55;13.98;;;;;;;7.71;61.22;101522.69;5052817;28;20052;-85
2023/04/06 09:16:42;;;;;;;22.92;14.38;;;;;;;7.90;61.37;101548.19;5021428;28;20063;-85
2023/04/06 09:19:09;;;;;;;24.40;14.55;;;;;;;7.92;61.40;101540.31;5045479;28;20045;-85
2023/04/06 09:21:35;;;;;;;24.92;14.90;;;;;;;7.99;62.26;101536.78;5044651;28;20116;-85
2023/04/06 09:24:02;;;;;;;23.17;13.50;;;;;;;8.11;62.49;101543.78;5044918;28;20041;-84
2023/04/06 09:26:28;;;;;;;23.13;13.27;;;;;;;8.15;61.65;101543.81;5031475;28;20065;-85
2023/04/06 09:28:55;;;;;;;21.65;13.35;;;;;;;8.17;61.92;101543.81;5034494;28;20041;-86
2023/04/06 09:31:29;;;;;;;25.15;14.27;;;;;;;8.19;62.85;101535.00;5051490;28;20498;-85
2023/04/06 09:33:56;;;;;;;23.05;13.57;;;;;;;8.27;63.25;101542.91;5067925;28;20515;-84
2023/04/06 09:36:35;;;;;;;23.33;15.00;;;;;;;8.28;63.72;101543.78;5052193;28;20025;-85
2023/04/06 09:39:03;;;;;;;24.85;13.77;;;;;;;8.31;64.13;101533.25;5054906;28;20261;-84
2023/04/06 09:41:39;;;;;;;26.05;13.43;;;;;;;8.43;64.67;101541.16;5057801;28;20029;-85
2023/04/06 09:44:10;;;;;;;19.05;12.15;;;;;;;8.46;63.79;101538.53;5033122;28;20497;-86
2023/04/06 09:46:40;;;;;;;21.25;12.80;;;;;;;8.45;65.02;101544.69;5052136;28;20041;-85
2023/04/06 09:49:08;;;;;;;22.17;11.93;;;;;;;8.47;65.26;101537.63;5045050;28;20384;-85
2023/04/06 09:51:48;;;;;;;16.15;11.35;;;;;;;8.52;66.02;101535.00;5034192;28;20029;-85
2023/04/06 09:54:22;;;;;;;19.45;12.20;;;;;;;8.51;66.70;101539.41;5052047;28;20041;-84
2023/04/06 09:56:51;;;;;;;22.38;13.02;;;;;;;8.41;67.35;101537.66;5051121;28;20180;-85
2023/04/06 09:59:26;;;;;;;18.38;12.85;;;;;;;8.46;68.57;101527.97;5053414;28;20045;-85
2023/04/06 10:01:55;;;;;;;17.48;11.18;;;;;;;8.46;67.71;101535.91;5052227;28;20067;-84
2023/04/06 10:04:32;;;;;;;16.63;10.00;;;;;;;8.43;69.45;101535.88;5067251;28;20032;-83
2023/04/06 10:06:59;;;;;;;16.92;10.48;;;;;;;8.35;70.19;101543.78;5067439;28;20045;-85
2023/04/06 10:09:35;;;;;;;17.05;10.95;;;;;;;8.26;71.60;101535.91;5067438;28;20063;-83
2023/04/06 10:12:04;;;;;;;22.77;11.52;;;;;;;8.30;73.04;101542.03;5047740;28;20041;-83
2023/04/06 10:14:36;;;;;;;19.58;11.07;;;;;;;8.33;73.72;101545.56;5042633;28;20058;-84
2023/04/06 10:17:03;;;;;;;14.80;9.98;;;;;;;8.30;74.02;101552.59;5051497;28;20103;-83
2023/04/06 10:19:39;;;;;;;18.88;8.85;;;;;;;8.28;73.69;101546.44;5050691;28;20094;-84
2023/04/06 10:22:06;;;;;;;13.30;8.85;;;;;;;8.25;74.13;101542.03;5050093;28;20029;-84
2023/04/06 10:24:31;;;;;;;16.15;9.65;;;;;;;8.27;74.86;101549.97;5047936;28;20115;-83
2023/04/06 10:27:05;;;;;;;16.45;9.95;;;;;;;8.28;74.80;101547.31;5048127;28;20128;-84
2023/04/06 10:29:43;;;;;;;14.80;8.95;;;;;;;8.18;76.04;101549.09;5060248;28;20709;-84
2023/04/06 10:32:08;;;;;;;16.98;9.27;;;;;;;8.17;75.88;101549.97;5042246;28;20186;-84
2023/04/06 10:34:35;;;;;;;13.40;8.25;;;;;;;8.16;76.42;101550.84;5042216;28;20108;-85
2023/04/06 10:37:14;;;;;;;15.48;9.38;;;;;;;8.12;77.16;101554.34;5044894;28;20043;-84
2023/04/06 10:39:57;;;;;;;11.93;8.27;;;;;;;8.10;78.22;101547.31;5042649;28;20371;-84
2023/04/06 10:42:35;;;;;;;14.98;9.10;;;;;;;8.07;78.53;101550.84;5042378;28;20109;-84
2023/04/06 10:45:01;;;;;;;13.05;7.60;;;;;;;8.04;78.22;101549.97;5051648;28;20487;-84
2023/04/06 10:47:26;;;;;;;16.73;8.07;;;;;;;8.02;79.45;101547.34;5051237;28;20037;-84
2023/04/06 10:49:52;;;;;;;16.02;8.63;;;;;;;8.00;79.52;101545.56;5059572;28;20032;-84
2023/04/06 10:52:17;;;;;;;13.45;8.02;;;;;;;8.00;79.83;101542.94;5053830;28;20048;-84
2023/04/06 10:54:44;;;;;;;12.13;7.65;;;;;;;7.99;80.20;101539.44;5030864;28;20034;-85
2023/04/06 10:57:09;;;;;;;12.68;7.65;;;;;;;7.86;82.13;101537.66;5042543;28;20418;-84
2023/04/06 10:59:35;;;;;;;10.60;7.50;;;;;;;7.84;82.17;101536.75;5050927;28;20036;-84
2023/04/06 11:02:00;;;;;;;14.07;7.57;;;;;;;7.81;81.67;101531.50;5066767;28;20047;-84
2023/04/06 11:04:26;;;;;;;14.05;7.85;;;;;;;7.82;83.01;101542.06;5048292;28;20025;-84
2023/04/06 11:06:51;;;;;;;11.93;8.13;;;;;;;7.73;83.61;101526.22;5077345;28;20048;-83
2023/04/06 11:09:28;;;;;;;12.07;7.63;;;;;;;7.68;83.88;101526.22;5063332;28;20053;-85
2023/04/06 11:11:55;;;;;;;15.55;7.53;;;;;;;7.70;83.24;101523.59;5064784;28;20125;-85
2023/04/06 11:14:21;;;;;;;12.85;7.60;;;;;;;7.69;85.42;101519.16;5059963;28;20053;-85
2023/04/06 11:16:50;;;;;;;12.98;7.78;;;;;;;7.70;83.53;101518.31;5066554;28;20020;-85
2023/04/06 11:19:16;;;;;;;10.13;6.70;;;;;;;7.68;84.33;101520.94;5059094;28;20033;-84
2023/04/06 11:21:47;;;;;;;11.60;7.57;;;;;;;7.66;86.57;101516.53;5050456;28;20061;-84
2023/04/06 11:24:16;;;;;;;14.35;7.47;;;;;;;7.73;85.38;101519.19;5054610;28;20037;-85